createdAt,value
2019-04-04T00:00:42.718Z,22.4
2019-04-04T00:01:52.280Z,22.3
2019-04-04T00:03:01.641Z,22.3
2019-04-04T00:04:11.100Z,22.4
2019-04-04T00:06:30.063Z,22.4
2019-04-04T00:07:39.566Z,22.4
2019-04-04T00:08:48.981Z,22.5
2019-04-04T00:09:58.484Z,22.3
2019-04-04T00:11:08.035Z,22.5
2019-04-04T00:12:17.369Z,22.7
2019-04-04T00:13:26.860Z,22.6
2019-04-04T00:14:36.367Z,22.3
2019-04-04T00:15:46.109Z,22.7
2019-04-04T00:16:55.351Z,23
2019-04-04T00:18:04.713Z,22.5
2019-04-04T00:19:14.224Z,22.5
2019-04-04T00:20:23.633Z,22.3
2019-04-04T00:21:34.657Z,22.3
2019-04-04T00:22:42.791Z,22.6
2019-04-04T00:23:53.324Z,22.6
2019-04-04T00:25:02.681Z,22.4
2019-04-04T00:26:12.123Z,22.8
2019-04-04T00:27:21.677Z,22.4
2019-04-04T00:28:31.057Z,22.6
2019-04-04T00:29:40.543Z,22.7
2019-04-04T00:30:50.182Z,22.6
2019-04-04T00:31:59.448Z,22.3
2019-04-04T00:33:08.901Z,22.6
2019-04-04T00:34:18.371Z,23.1
2019-04-04T00:35:31.572Z,22.6
2019-04-04T00:36:37.352Z,22.9
2019-04-04T00:37:46.807Z,23
2019-04-04T00:38:56.231Z,22.5
2019-04-04T00:40:05.738Z,22.4
2019-04-04T00:41:15.229Z,22.8
2019-04-04T00:42:24.639Z,23.1
2019-04-04T00:43:34.072Z,22.2
2019-04-04T00:44:43.573Z,22.4
2019-04-04T00:45:52.976Z,22.5
2019-04-04T00:47:02.456Z,22.8
2019-04-04T00:48:11.942Z,23.3
2019-04-04T00:49:21.409Z,23.3
2019-04-04T00:50:30.825Z,23.3
2019-04-04T00:51:40.321Z,22.8
2019-04-04T00:52:49.730Z,22.6
2019-04-04T00:53:59.205Z,22.8
2019-04-04T00:55:08.638Z,23.2
2019-04-04T00:56:18.852Z,23.2
2019-04-04T00:57:27.599Z,23.2
2019-04-04T00:58:37.048Z,23.2
2019-04-04T00:59:46.496Z,23.2
2019-04-04T01:00:55.950Z,23.2
2019-04-04T01:02:05.602Z,23.2
2019-04-04T01:03:15.987Z,23.2
2019-04-04T01:04:25.530Z,23.1
2019-04-04T01:05:34.918Z,23.1
2019-04-04T01:06:44.401Z,23.1
2019-04-04T01:07:53.799Z,23
2019-04-04T01:09:03.277Z,23
2019-04-04T01:10:12.703Z,23.4
2019-04-04T01:11:22.173Z,23.6
2019-04-04T01:12:31.592Z,23.8
2019-04-04T01:13:41.064Z,23.8
2019-04-04T01:14:50.549Z,24
2019-04-04T01:16:03.310Z,24.4
2019-04-04T01:17:09.414Z,24.8
2019-04-04T01:18:18.838Z,24.9
2019-04-04T01:19:28.278Z,24.9
2019-04-04T01:20:37.749Z,24.8
2019-04-04T01:21:47.247Z,25
2019-04-04T01:22:56.785Z,25.1
2019-04-04T01:24:06.086Z,25.1
2019-04-04T01:25:15.526Z,25.3
2019-04-04T01:26:24.952Z,25.4
2019-04-04T01:27:37.033Z,25.4
2019-04-04T01:28:43.948Z,25.6
2019-04-04T01:29:53.290Z,25.6
2019-04-04T01:31:02.717Z,25.8
2019-04-04T01:32:12.163Z,25.9
2019-04-04T01:33:21.650Z,26.3
2019-04-04T01:34:31.029Z,26.4
2019-04-04T01:35:40.473Z,26.6
2019-04-04T01:37:59.337Z,27
2019-04-04T01:39:08.790Z,27.1
2019-04-04T01:40:18.208Z,27.1
2019-04-04T01:41:27.637Z,27
2019-04-04T01:42:38.987Z,27.5
2019-04-04T01:43:46.493Z,27.7
2019-04-04T01:44:55.934Z,27.7
2019-04-04T01:46:05.486Z,27.4
2019-04-04T01:47:17.545Z,27.7
2019-04-04T01:48:24.234Z,27.6
2019-04-04T01:49:33.638Z,27.7
2019-04-04T01:50:43.098Z,27.9
2019-04-04T01:51:52.506Z,28.1
2019-04-04T01:53:01.971Z,28.2
2019-04-04T01:54:11.362Z,28.2
2019-04-04T01:55:20.915Z,28.2
2019-04-04T01:56:30.222Z,28.4
2019-04-04T01:57:39.666Z,28.5
2019-04-04T01:58:49.067Z,28.2
2019-04-04T01:59:58.499Z,28.6
2019-04-04T02:01:07.957Z,28.7
2019-04-04T02:02:18.636Z,28.9
2019-04-04T02:03:26.819Z,28.8
2019-04-04T02:04:36.167Z,28.7
2019-04-04T02:05:45.595Z,28.8
2019-04-04T02:08:04.435Z,29.5
2019-04-04T02:09:13.836Z,29.2
2019-04-04T02:10:23.291Z,29.2
2019-04-04T02:11:32.684Z,29.4
2019-04-04T02:12:42.138Z,29.4
2019-04-04T02:13:52.727Z,29.3
2019-04-04T02:15:02.137Z,29.4
2019-04-04T02:16:11.540Z,29.8
2019-04-04T02:17:22.792Z,29.8
2019-04-04T02:18:30.369Z,29.8
2019-04-04T02:19:41.134Z,29.8
2019-04-04T02:20:50.663Z,30
2019-04-04T02:22:00.446Z,29.9
2019-04-04T02:23:09.344Z,30.3
2019-04-04T02:24:18.746Z,30.1
2019-04-04T02:25:28.223Z,30
2019-04-04T02:26:37.618Z,30
2019-04-04T02:27:47.014Z,30.4
2019-04-04T02:28:56.460Z,30.6
2019-04-04T02:30:05.823Z,30.7
2019-04-04T02:31:15.231Z,30.8
2019-04-04T02:32:27.656Z,30.7
2019-04-04T02:33:34.073Z,30.8
2019-04-04T02:34:43.451Z,30.9
2019-04-04T02:35:52.902Z,30.9
2019-04-04T02:37:02.265Z,31.2
2019-04-04T02:38:11.692Z,31.4
2019-04-04T02:39:21.140Z,31.3
2019-04-04T02:40:30.491Z,32
2019-04-04T02:41:39.925Z,32.7
2019-04-04T02:42:49.307Z,32.3
2019-04-04T02:44:00.719Z,32.2
2019-04-04T02:45:08.149Z,32.4
2019-04-04T02:46:17.532Z,32.6
2019-04-04T02:47:26.890Z,32.6
2019-04-04T02:48:36.406Z,32.6
2019-04-04T02:49:45.697Z,32.6
2019-04-04T02:50:55.104Z,32.8
2019-04-04T02:52:04.569Z,32.9
2019-04-04T02:53:13.896Z,32.5
2019-04-04T02:54:25.772Z,32.7
2019-04-04T02:55:32.776Z,32.8
2019-04-04T02:56:42.098Z,33.8
2019-04-04T02:57:51.621Z,32.9
2019-04-04T02:59:00.949Z,33.1
2019-04-04T03:00:10.319Z,33.1
2019-04-04T03:01:20.071Z,33.1
2019-04-04T03:02:29.094Z,34
2019-04-04T03:03:42.145Z,34.1
2019-04-04T03:04:47.896Z,34.1
2019-04-04T03:05:57.357Z,33.5
2019-04-04T03:07:06.712Z,33.9
2019-04-04T03:08:16.068Z,34
2019-04-04T03:09:25.560Z,34
2019-04-04T03:10:34.873Z,34
2019-04-04T03:11:44.278Z,34.1
2019-04-04T03:12:59.296Z,34.1
2019-04-04T03:14:04.773Z,34.1
2019-04-04T03:15:12.472Z,34
2019-04-04T03:16:22.664Z,34
2019-04-04T03:17:32.823Z,34
2019-04-04T03:18:40.676Z,34
2019-04-04T03:19:50.119Z,33.9
2019-04-04T03:20:59.422Z,33.9
2019-04-04T03:22:08.888Z,33.9
2019-04-04T03:23:18.216Z,33.9
2019-04-04T03:24:27.760Z,33.9
2019-04-04T03:25:36.962Z,33.8
2019-04-04T03:26:46.401Z,33.8
2019-04-04T03:27:59.309Z,34.1
2019-04-04T03:29:09.918Z,34.6
2019-04-04T03:30:17.676Z,34.7
2019-04-04T03:31:25.068Z,34.5
2019-04-04T03:32:34.489Z,34.9
2019-04-04T03:33:43.992Z,35.1
2019-04-04T03:34:53.246Z,34.5
2019-04-04T03:36:02.652Z,34.3
2019-04-04T03:37:12.647Z,33.9
2019-04-04T03:38:21.574Z,34.8
2019-04-04T03:39:30.775Z,35
2019-04-04T03:40:42.152Z,35.2
2019-04-04T03:41:49.573Z,35.1
2019-04-04T03:42:58.917Z,35
2019-04-04T03:44:08.375Z,35.3
2019-04-04T03:45:17.768Z,35.4
2019-04-04T03:46:27.097Z,35.8
2019-04-04T03:47:36.482Z,35.5
2019-04-04T03:48:51.008Z,35.4
2019-04-04T03:49:58.029Z,35.6
2019-04-04T03:51:05.409Z,35.7
2019-04-04T03:52:14.004Z,35.5
2019-04-04T03:53:23.422Z,35.5
2019-04-04T03:54:32.782Z,35.3
2019-04-04T03:55:43.320Z,36
2019-04-04T03:56:52.706Z,36
2019-04-04T03:58:02.164Z,35.6
2019-04-04T03:59:11.537Z,35.7
2019-04-04T04:00:20.864Z,35.8
2019-04-04T04:01:30.261Z,36.2
2019-04-04T04:03:49.011Z,35.7
2019-04-04T04:05:02.072Z,36.6
2019-04-04T04:06:09.951Z,35.7
2019-04-04T04:07:17.292Z,35.5
2019-04-04T04:08:26.544Z,36
2019-04-04T04:09:35.898Z,35.9
2019-04-04T04:10:45.280Z,35.7
2019-04-04T04:11:54.672Z,36.4
2019-04-04T04:13:04.044Z,36
2019-04-04T04:14:13.421Z,36.1
2019-04-04T04:15:22.822Z,35.8
2019-04-04T04:16:36.143Z,35.9
2019-04-04T04:17:46.391Z,36.2
2019-04-04T04:18:55.270Z,35.7
2019-04-04T04:20:04.768Z,35.5
2019-04-04T04:21:11.340Z,36
2019-04-04T04:22:19.624Z,36
2019-04-04T04:23:28.474Z,36.1
2019-04-04T04:24:37.885Z,35.9
2019-04-04T04:25:47.351Z,36.5
2019-04-04T04:26:56.648Z,36.2
2019-04-04T04:28:05.987Z,36.3
2019-04-04T04:29:15.358Z,36.3
2019-04-04T04:30:24.789Z,36.3
2019-04-04T04:31:34.121Z,36.2
2019-04-04T04:32:43.512Z,36.6
2019-04-04T04:33:52.893Z,36.5
2019-04-04T04:35:02.333Z,36.3
2019-04-04T04:36:16.339Z,36.3
2019-04-04T04:37:21.259Z,36.4
2019-04-04T04:38:30.402Z,36.4
2019-04-04T04:39:41.621Z,36.3
2019-04-04T04:40:49.153Z,36.6
2019-04-04T04:41:58.559Z,36.7
2019-04-04T04:43:07.908Z,36.8
2019-04-04T04:44:17.300Z,36.2
2019-04-04T04:45:26.740Z,36
2019-04-04T04:46:36.066Z,35.8
2019-04-04T04:47:45.467Z,36.1
2019-04-04T04:48:54.823Z,36.2
2019-04-04T04:50:04.187Z,36.7
2019-04-04T04:51:13.566Z,36.4
2019-04-04T04:52:22.933Z,36
2019-04-04T04:53:32.309Z,35.7
2019-04-04T04:54:41.713Z,35.6
2019-04-04T04:55:51.065Z,35.3
2019-04-04T04:57:04.828Z,35.1
2019-04-04T04:58:11.213Z,35.7
2019-04-04T04:59:19.229Z,34.5
2019-04-04T05:00:28.601Z,34.1
2019-04-04T05:01:40.756Z,33.9
2019-04-04T05:02:47.351Z,33.9
2019-04-04T05:03:57.309Z,34
2019-04-04T05:05:06.127Z,33.9
2019-04-04T05:06:15.886Z,34
2019-04-04T05:07:24.900Z,33.9
2019-04-04T05:08:34.282Z,34
2019-04-04T05:09:45.012Z,34
2019-04-04T05:10:53.069Z,34.1
2019-04-04T05:12:02.484Z,34.1
2019-04-04T05:13:11.843Z,33.8
2019-04-04T05:14:21.322Z,33.9
2019-04-04T05:15:33.238Z,34
2019-04-04T05:16:40.032Z,33.7
2019-04-04T05:17:49.486Z,32.5
2019-04-04T05:18:58.870Z,32.9
2019-04-04T05:20:08.387Z,33
2019-04-04T05:21:26.353Z,33.2
2019-04-04T05:22:27.194Z,32.8
2019-04-04T05:23:36.491Z,32.2
2019-04-04T05:25:55.257Z,31.5
2019-04-04T05:27:06.737Z,30.7
2019-04-04T05:28:14.071Z,30.2
2019-04-04T05:29:23.612Z,30.8
2019-04-04T05:30:32.873Z,32.8
2019-04-04T05:31:42.609Z,31.1
2019-04-04T05:32:56.200Z,30.3
2019-04-04T05:34:01.350Z,30.3
2019-04-04T05:35:10.655Z,31.3
2019-04-04T05:36:19.947Z,30.8
2019-04-04T05:37:29.399Z,32
2019-04-04T05:38:38.767Z,30.9
2019-04-04T05:39:52.065Z,30.6
2019-04-04T05:40:57.649Z,29.7
2019-04-04T05:42:07.020Z,30
2019-04-04T05:43:16.490Z,29.6
2019-04-04T05:44:25.936Z,29.4
2019-04-04T05:45:35.387Z,28.7
2019-04-04T05:46:44.724Z,29.3
2019-04-04T05:47:59.511Z,29.2
2019-04-04T05:49:08.431Z,29.1
2019-04-04T05:50:12.979Z,29.4
2019-04-04T05:51:22.424Z,29.5
2019-04-04T05:52:33.216Z,29.4
2019-04-04T05:53:41.332Z,30.5
2019-04-04T05:54:50.710Z,30.4
2019-04-04T05:56:00.152Z,29.4
2019-04-04T05:57:09.603Z,29
2019-04-04T05:58:22.691Z,29.7
2019-04-04T05:59:28.508Z,29.1
2019-04-04T06:00:37.946Z,29.1
2019-04-04T06:01:47.380Z,28.3
2019-04-04T06:02:56.804Z,27.6
2019-04-04T06:04:06.241Z,29
2019-04-04T06:05:15.815Z,28.7
2019-04-04T06:06:25.132Z,29
2019-04-04T06:07:37.258Z,27.9
2019-04-04T06:08:44.022Z,27.6
2019-04-04T06:09:53.462Z,28.3
2019-04-04T06:11:02.952Z,27.3
2019-04-04T06:12:12.425Z,29.2
2019-04-04T06:13:22.414Z,28.1
2019-04-04T06:14:31.320Z,28.1
2019-04-04T06:15:40.841Z,27.1
2019-04-04T06:16:50.254Z,27.7
2019-04-04T06:17:59.679Z,28.5
2019-04-04T06:19:09.156Z,28.4
2019-04-04T06:20:18.602Z,28.2
2019-04-04T06:21:28.135Z,26.9
2019-04-04T06:22:37.543Z,26.8
2019-04-04T06:23:47.033Z,26.3
2019-04-04T06:24:59.926Z,25.3
2019-04-04T06:26:07.770Z,24.4
2019-04-04T06:27:15.455Z,24.8
2019-04-04T06:28:24.924Z,23.8
2019-04-04T06:29:34.418Z,24.7
2019-04-04T06:30:43.997Z,25.8
2019-04-04T06:31:53.415Z,25.5
2019-04-04T06:33:05.106Z,26
2019-04-04T06:34:12.475Z,26
2019-04-04T06:35:21.832Z,26.6
2019-04-04T06:36:31.415Z,26.8
2019-04-04T06:37:40.944Z,26.3
2019-04-04T06:38:53.940Z,26
2019-04-04T06:39:59.845Z,26.1
2019-04-04T06:41:09.326Z,26.9
2019-04-04T06:42:18.857Z,26.8
2019-04-04T06:43:28.355Z,25.5
2019-04-04T06:44:37.878Z,26.6
2019-04-04T06:45:47.679Z,26.4
2019-04-04T06:46:57.028Z,26.1
2019-04-04T06:48:06.708Z,26.8
2019-04-04T06:49:16.050Z,26.2
2019-04-04T06:50:25.567Z,25.6
2019-04-04T06:51:35.166Z,25.3
2019-04-04T06:52:44.693Z,25.4
2019-04-04T06:53:54.609Z,25.2
2019-04-04T06:55:03.805Z,25.2
2019-04-04T06:56:13.190Z,23.8
2019-04-04T06:57:22.806Z,25.6
2019-04-04T06:58:32.268Z,24.7
2019-04-04T06:59:44.028Z,23.1
2019-04-04T07:00:51.343Z,24
2019-04-04T07:02:00.909Z,23.3
2019-04-04T07:03:10.636Z,23.4
2019-04-04T07:04:19.994Z,24
2019-04-04T07:05:29.601Z,24.4
2019-04-04T07:06:42.401Z,23.7
2019-04-04T07:07:48.629Z,23.9
2019-04-04T07:08:58.188Z,24
2019-04-04T07:10:07.773Z,23.4
2019-04-04T07:11:21.866Z,23.4
2019-04-04T07:12:28.733Z,23.2
2019-04-04T07:13:42.988Z,23.2
2019-04-04T07:14:49.542Z,23.5
2019-04-04T07:16:07.921Z,23.2
2019-04-04T07:17:09.427Z,23.6
2019-04-04T07:18:14.710Z,22.9
2019-04-04T07:19:24.280Z,23.1
2019-04-04T07:20:33.911Z,23.1
2019-04-04T07:21:43.464Z,23.2
2019-04-04T07:22:56.314Z,23.5
2019-04-04T07:24:02.598Z,22.8
2019-04-04T07:25:12.172Z,21.5
2019-04-04T07:26:21.864Z,22.6
2019-04-04T07:27:31.388Z,22.1
2019-04-04T07:28:41.033Z,22.7
2019-04-04T07:29:50.564Z,23.1
2019-04-04T07:31:02.515Z,23.1
2019-04-04T07:32:10.277Z,22.9
2019-04-04T07:33:21.580Z,23.1
2019-04-04T07:34:28.958Z,22.6
2019-04-04T07:35:38.663Z,20.4
2019-04-04T07:36:51.164Z,23
2019-04-04T07:37:57.858Z,23
2019-04-04T07:39:07.418Z,21.7
2019-04-04T07:40:20.459Z,21.8
2019-04-04T07:41:26.604Z,21.6
2019-04-04T07:42:36.328Z,22.3
2019-04-04T07:43:45.869Z,23.1
2019-04-04T07:44:55.529Z,23.5
2019-04-04T07:46:17.192Z,22.5
2019-04-04T07:47:16.832Z,22.6
2019-04-04T07:48:24.370Z,23
2019-04-04T07:49:34.166Z,22.3
2019-04-04T07:50:43.592Z,22.3
2019-04-04T07:51:53.194Z,21.2
2019-04-04T07:53:05.268Z,22.4
2019-04-04T07:54:12.448Z,22.8
2019-04-04T07:55:22.103Z,21.2
2019-04-04T07:56:31.717Z,21.7
2019-04-04T07:57:41.352Z,20.6
2019-04-04T07:58:51.485Z,21
2019-04-04T08:00:00.654Z,23.4
2019-04-04T08:01:10.338Z,22
2019-04-04T08:02:19.950Z,21.3
2019-04-04T08:03:29.580Z,22.2
2019-04-04T08:04:39.310Z,21.9
2019-04-04T08:05:48.930Z,21.4
2019-04-04T08:06:58.484Z,21
2019-04-04T08:08:08.166Z,20.9
2019-04-04T08:09:17.743Z,18.9
2019-04-04T08:10:27.538Z,20.9
2019-04-04T08:11:37.096Z,21.4
2019-04-04T08:12:46.677Z,20
2019-04-04T08:13:56.346Z,19.8
2019-04-04T08:15:06.108Z,19.9
2019-04-04T08:16:16.067Z,17.9
2019-04-04T08:17:25.339Z,18.2
2019-04-04T08:18:35.054Z,18.9
2019-04-04T08:19:44.660Z,20
2019-04-04T08:20:54.286Z,21.3
2019-04-04T08:22:04.077Z,21.3
2019-04-04T08:23:13.612Z,20.2
2019-04-04T08:24:23.259Z,20.4
2019-04-04T08:25:33.047Z,20.4
2019-04-04T08:26:42.891Z,20.2
2019-04-04T08:27:52.243Z,18.5
2019-04-04T08:29:02.009Z,18.4
2019-04-04T08:30:11.603Z,19
2019-04-04T08:31:21.346Z,18.5
2019-04-04T08:32:31.043Z,18.4
2019-04-04T08:33:41.113Z,17.9
2019-04-04T08:34:50.521Z,17.8
2019-04-04T08:36:06.628Z,16.7
2019-04-04T08:37:10.102Z,16.6
2019-04-04T08:39:29.405Z,17.4
2019-04-04T08:40:39.160Z,16.1
2019-04-04T08:41:48.902Z,16.3
2019-04-04T08:42:58.675Z,16.4
2019-04-04T08:44:08.419Z,18.6
2019-04-04T08:45:18.190Z,17.8
2019-04-04T08:46:27.935Z,14.6
2019-04-04T08:47:38.065Z,16.1
2019-04-04T08:48:47.469Z,15.5
2019-04-04T08:49:57.292Z,16.4
2019-04-04T08:51:07.096Z,16.8
2019-04-04T08:52:20.917Z,16.3
2019-04-04T08:53:40.366Z,17.5
2019-04-04T08:54:36.485Z,16.5
2019-04-04T08:55:46.163Z,15.2
2019-04-04T08:56:55.992Z,17.4
2019-04-04T08:58:05.748Z,18.2
2019-04-04T08:59:15.524Z,16.3
2019-04-04T09:00:25.338Z,14.4
2019-04-04T09:01:36.363Z,14.8
2019-04-04T09:02:46.041Z,15.8
2019-04-04T09:03:55.851Z,17.7
2019-04-04T09:05:12.673Z,18.1
2019-04-04T09:06:15.426Z,17.2
2019-04-04T09:07:25.175Z,17
2019-04-04T09:08:34.964Z,17.4
2019-04-04T09:09:44.932Z,17.8
2019-04-04T09:10:54.674Z,17.5
2019-04-04T09:12:04.270Z,18.1
2019-04-04T09:13:14.126Z,18
2019-04-04T09:14:23.903Z,17.1
2019-04-04T09:15:33.471Z,15.1
2019-04-04T09:16:43.228Z,16.1
2019-04-04T09:17:52.995Z,15.4
2019-04-04T09:19:02.805Z,14.1
2019-04-04T09:20:12.719Z,15.3
2019-04-04T09:21:22.287Z,15.3
2019-04-04T09:22:32.065Z,14.8
2019-04-04T09:23:41.730Z,14.9
2019-04-04T09:24:51.565Z,16.3
2019-04-04T09:26:06.430Z,15.9
2019-04-04T09:27:11.103Z,15.6
2019-04-04T09:28:20.894Z,15.9
2019-04-04T09:29:30.506Z,15.4
2019-04-04T09:30:40.266Z,14
2019-04-04T09:31:50.070Z,14.1
2019-04-04T09:32:59.833Z,15.1
2019-04-04T09:34:09.527Z,15.3
2019-04-04T09:35:19.380Z,14.2
2019-04-04T09:36:29.106Z,14.1
2019-04-04T09:37:38.924Z,14.2
2019-04-04T09:38:48.603Z,14.5
2019-04-04T09:39:58.357Z,13.1
2019-04-04T09:41:08.171Z,12
2019-04-04T09:42:17.934Z,14.1
2019-04-04T09:43:27.757Z,14.1
2019-04-04T09:44:37.517Z,14.1
2019-04-04T09:45:47.242Z,14.6
2019-04-04T09:47:05.929Z,12
2019-04-04T09:48:06.788Z,11.2
2019-04-04T09:49:16.574Z,12.6
2019-04-04T09:50:26.397Z,11.6
2019-04-04T09:51:36.151Z,12.4
2019-04-04T09:52:45.925Z,13.4
2019-04-04T09:53:55.697Z,12
2019-04-04T09:55:05.838Z,10.6
2019-04-04T09:56:15.443Z,10.7
2019-04-04T09:57:25.069Z,9.9
2019-04-04T09:58:34.845Z,11.6
2019-04-04T09:59:44.688Z,11.2
2019-04-04T10:00:54.552Z,13.3
2019-04-04T10:02:04.195Z,12.9
2019-04-04T10:03:14.111Z,11.6
2019-04-04T10:04:23.758Z,13.4
2019-04-04T10:05:33.500Z,12.8
2019-04-04T10:06:43.692Z,13.8
2019-04-04T10:07:53.021Z,13
2019-04-04T10:09:16.287Z,12.7
2019-04-04T10:10:12.537Z,13
2019-04-04T10:11:22.313Z,12.6
2019-04-04T10:12:32.048Z,12.5
2019-04-04T10:13:41.796Z,13.4
2019-04-04T10:14:51.709Z,14.4
2019-04-04T10:16:01.335Z,12.7
2019-04-04T10:17:11.032Z,12.3
2019-04-04T10:18:21.122Z,12.6
2019-04-04T10:19:30.501Z,13.1
2019-04-04T10:20:40.340Z,12.3
2019-04-04T10:21:50.505Z,13.5
2019-04-04T10:24:09.491Z,12.8
2019-04-04T10:25:19.224Z,13.3
2019-04-04T10:26:29.085Z,12.8
2019-04-04T10:27:38.806Z,12.2
2019-04-04T10:28:48.434Z,11.8
2019-04-04T10:29:58.160Z,10.4
2019-04-04T10:31:07.945Z,12.8
2019-04-04T10:32:17.628Z,13.9
2019-04-04T10:33:27.354Z,14.1
2019-04-04T10:34:37.130Z,14.3
2019-04-04T10:35:46.881Z,14
2019-04-04T10:36:56.587Z,14.4
2019-04-04T10:38:06.266Z,14.2
2019-04-04T10:39:29.428Z,13.4
2019-04-04T10:40:25.624Z,13.9
2019-04-04T10:41:35.395Z,12.1
2019-04-04T10:42:46.152Z,12.6
2019-04-04T10:43:55.883Z,12
2019-04-04T10:45:05.607Z,10.8
2019-04-04T10:46:15.316Z,11.8
2019-04-04T10:47:25.451Z,13.2
2019-04-04T10:48:34.781Z,12.8
2019-04-04T10:49:44.553Z,12.4
2019-04-04T10:50:54.254Z,12.2
2019-04-04T10:52:03.951Z,12.7
2019-04-04T10:53:13.674Z,11.9
2019-04-04T10:54:23.403Z,10
2019-04-04T10:55:33.205Z,10.7
2019-04-04T10:56:43.106Z,11.2
2019-04-04T10:57:52.615Z,10.5
2019-04-04T10:59:02.424Z,10
2019-04-04T11:00:12.349Z,10.1
2019-04-04T11:01:21.879Z,9.3
2019-04-04T11:02:31.635Z,7.7
2019-04-04T11:03:41.385Z,7.3
2019-04-04T11:04:51.205Z,9.1
2019-04-04T11:06:00.938Z,9.7
2019-04-04T11:07:10.721Z,9.2
2019-04-04T11:08:20.568Z,8.8
2019-04-04T11:09:42.389Z,8.6
2019-04-04T11:10:40.082Z,8.2
2019-04-04T11:11:49.865Z,10.2
2019-04-04T11:13:03.056Z,11.8
2019-04-04T11:14:09.441Z,10
2019-04-04T11:15:19.189Z,10.5
2019-04-04T11:18:29.784Z,10.8
2019-04-04T11:18:48.576Z,11
2019-04-04T11:19:58.246Z,8.5
2019-04-04T11:21:08.035Z,8.1
2019-04-04T11:22:17.801Z,6.9
2019-04-04T11:23:27.654Z,9
2019-04-04T11:24:37.373Z,9.3
2019-04-04T11:25:47.207Z,8.9
2019-04-04T11:26:56.944Z,9.2
2019-04-04T11:28:06.706Z,10.4
2019-04-04T11:29:16.486Z,9.8
2019-04-04T11:30:26.289Z,8
2019-04-04T11:31:36.047Z,8.3
2019-04-04T11:32:49.092Z,10.1
2019-04-04T11:33:55.596Z,10.4
2019-04-04T11:35:05.399Z,10.3
2019-04-04T11:36:15.211Z,9.6
2019-04-04T11:37:24.848Z,9
2019-04-04T11:38:34.625Z,9.6
2019-04-04T11:39:55.169Z,8.8
2019-04-04T11:40:54.127Z,9.5
2019-04-04T11:42:04.787Z,9.2
2019-04-04T11:43:13.666Z,7.1
2019-04-04T11:44:23.406Z,7.4
2019-04-04T11:45:33.227Z,6.9
2019-04-04T11:46:42.978Z,6.8
2019-04-04T11:47:52.690Z,7.6
2019-04-04T11:49:02.545Z,7.2
2019-04-04T11:50:12.299Z,8.5
2019-04-04T11:51:22.034Z,5.9
2019-04-04T11:52:31.888Z,6.6
2019-04-04T11:53:41.572Z,6.4
2019-04-04T11:54:52.163Z,7.8
2019-04-04T11:56:01.402Z,6.8
2019-04-04T11:57:10.974Z,8
2019-04-04T11:58:20.747Z,9.8
2019-04-04T11:59:30.506Z,9.6
2019-04-04T12:00:40.391Z,8.6
2019-04-04T12:01:50.051Z,8.7
2019-04-04T12:02:59.817Z,8.5
2019-04-04T12:04:09.688Z,8.4
2019-04-04T12:05:19.622Z,8.2
2019-04-04T12:06:29.309Z,8.1
2019-04-04T12:07:39.003Z,7.4
2019-04-04T12:08:48.642Z,8
2019-04-04T12:10:08.132Z,9.5
2019-04-04T12:11:08.147Z,9.6
2019-04-04T12:12:17.904Z,9.9
2019-04-04T12:13:27.723Z,10
2019-04-04T12:14:37.381Z,10.1
2019-04-04T12:15:47.751Z,9.5
2019-04-04T12:16:56.862Z,9.3
2019-04-04T12:18:06.674Z,7.8
2019-04-04T12:19:16.410Z,6.7
2019-04-04T12:20:26.090Z,8.3
2019-04-04T12:21:36.545Z,9.1
2019-04-04T12:23:55.376Z,8.5
2019-04-04T12:25:05.111Z,8.9
2019-04-04T12:26:15.009Z,7.4
2019-04-04T12:27:24.654Z,7.7
2019-04-04T12:28:34.506Z,6.9
2019-04-04T12:29:44.345Z,7.6
2019-04-04T12:30:54.080Z,6.7
2019-04-04T12:32:03.862Z,6.6
2019-04-04T12:33:13.705Z,5.5
2019-04-04T12:34:23.479Z,5.3
2019-04-04T12:35:33.323Z,5.4
2019-04-04T12:36:43.823Z,6.1
2019-04-04T12:37:53.056Z,5.6
2019-04-04T12:39:02.799Z,5.2
2019-04-04T12:40:21.232Z,5.3
2019-04-04T12:41:22.814Z,6.4
2019-04-04T12:42:32.355Z,6
2019-04-04T12:43:42.224Z,6.7
2019-04-04T12:44:52.088Z,5.7
2019-04-04T12:46:02.005Z,5.8
2019-04-04T12:47:11.913Z,5.3
2019-04-04T12:48:22.893Z,5.8
2019-04-04T12:49:32.749Z,5.1
2019-04-04T12:50:42.617Z,5.1
2019-04-04T12:51:52.475Z,4.8
2019-04-04T12:53:02.366Z,5
2019-04-04T12:54:12.257Z,3.9
2019-04-04T12:55:22.130Z,6.6
2019-04-04T12:56:32.024Z,6.2
2019-04-04T12:57:41.884Z,6.2
2019-04-04T12:58:51.714Z,6.4
2019-04-04T13:00:01.704Z,6.9
2019-04-04T13:01:11.410Z,6.3
2019-04-04T13:02:21.242Z,5.6
2019-04-04T13:03:31.117Z,6
2019-04-04T13:04:40.932Z,5.2
2019-04-04T13:05:50.780Z,6.3
2019-04-04T13:07:00.749Z,5.7
2019-04-04T13:08:10.381Z,6.4
2019-04-04T13:09:20.312Z,5.6
2019-04-04T13:10:33.704Z,4.5
2019-04-04T13:11:39.884Z,4.4
2019-04-04T13:12:49.744Z,5.6
2019-04-04T13:14:00.305Z,6.5
2019-04-04T13:15:09.429Z,5.6
2019-04-04T13:16:19.322Z,5.7
2019-04-04T13:17:29.237Z,5
2019-04-04T13:18:39.033Z,5.8
2019-04-04T13:19:48.864Z,4.8
2019-04-04T13:20:58.874Z,5.3
2019-04-04T13:22:08.570Z,6.3
2019-04-04T13:23:18.453Z,5.5
2019-04-04T13:24:28.399Z,5.2
2019-04-04T13:25:38.174Z,5.6
2019-04-04T13:26:48.066Z,6.3
2019-04-04T13:27:57.979Z,5.7
2019-04-04T13:29:07.822Z,5.6
2019-04-04T13:30:17.713Z,4.8
2019-04-04T13:31:27.629Z,5.7
2019-04-04T13:32:37.515Z,4.9
2019-04-04T13:33:47.420Z,5.6
2019-04-04T13:35:00.027Z,5.2
2019-04-04T13:36:07.604Z,5.8
2019-04-04T13:37:17.185Z,5.4
2019-04-04T13:38:27.146Z,4.3
2019-04-04T13:39:37.072Z,5.3
2019-04-04T13:40:47.017Z,6.3
2019-04-04T13:41:56.937Z,6.1
2019-04-04T13:43:06.911Z,6.5
2019-04-04T13:44:16.866Z,5.1
2019-04-04T13:45:26.908Z,5.1
2019-04-04T13:46:36.956Z,4.2
2019-04-04T13:47:46.732Z,5
2019-04-04T13:48:56.676Z,5.3
2019-04-04T13:50:06.690Z,4.2
2019-04-04T13:51:16.554Z,6.1
2019-04-04T13:52:27.159Z,6
2019-04-04T13:53:36.570Z,6.3
2019-04-04T13:54:46.496Z,6.2
2019-04-04T13:55:59.251Z,6.6
2019-04-04T13:57:06.500Z,7
2019-04-04T13:58:19.805Z,6.6
2019-04-04T13:59:26.497Z,6.2
2019-04-04T14:00:36.551Z,6.1
2019-04-04T14:01:46.513Z,5.9
2019-04-04T14:02:56.515Z,6
2019-04-04T14:04:06.693Z,6.3
2019-04-04T14:05:16.569Z,6.1
2019-04-04T14:06:26.574Z,5.6
2019-04-04T14:07:36.830Z,6.4
2019-04-04T14:08:46.655Z,5.9
2019-04-04T14:09:56.721Z,5.6
2019-04-04T14:11:06.767Z,6.2
2019-04-04T14:12:16.833Z,6.2
2019-04-04T14:13:27.126Z,5.8
2019-04-04T14:14:36.906Z,5.8
2019-04-04T14:15:47.015Z,5.3
2019-04-04T14:16:57.217Z,4.8
2019-04-04T14:18:08.657Z,4.8
2019-04-04T14:19:17.215Z,4.3
2019-04-04T14:20:27.327Z,4.5
2019-04-04T14:21:37.531Z,3.8
2019-04-04T14:22:50.981Z,5.2
2019-04-04T14:23:57.764Z,4.6
2019-04-04T14:25:07.864Z,4.2
2019-04-04T14:26:17.835Z,4.4
2019-04-04T14:27:27.954Z,4.4
2019-04-04T14:28:38.063Z,4.3
2019-04-04T14:29:48.321Z,4.1
2019-04-04T14:30:58.928Z,4.8
2019-04-04T14:32:08.560Z,5.4
2019-04-04T14:33:18.588Z,6.2
2019-04-04T14:34:28.648Z,6.1
2019-04-04T14:35:38.852Z,6
2019-04-04T14:36:48.869Z,5.2
2019-04-04T14:37:59.002Z,5.3
2019-04-04T14:39:09.833Z,4.6
2019-04-04T14:40:19.242Z,4.4
2019-04-04T14:41:29.336Z,3.9
2019-04-04T14:42:39.596Z,3.9
2019-04-04T14:43:49.556Z,4.5
2019-04-04T14:45:02.743Z,5
2019-04-04T14:46:09.936Z,4.7
2019-04-04T14:47:19.945Z,4.6
2019-04-04T14:48:30.093Z,4.3
2019-04-04T14:49:40.239Z,4.2
2019-04-04T14:50:50.255Z,4.6
2019-04-04T14:52:00.296Z,5.4
2019-04-04T14:53:10.272Z,5.3
2019-04-04T14:54:20.495Z,5.3
2019-04-04T14:55:30.185Z,5
2019-04-04T14:56:40.088Z,6
2019-04-04T14:57:50.154Z,5.5
2019-04-04T14:58:59.793Z,6.2
2019-04-04T15:00:09.627Z,5.6
2019-04-04T15:02:29.239Z,5.6
2019-04-04T15:04:48.934Z,5.7
2019-04-04T15:07:08.690Z,5.8
2019-04-04T15:08:18.383Z,5.9
2019-04-04T15:09:28.257Z,5.8
2019-04-04T15:10:39.242Z,5.6
2019-04-04T15:11:48.117Z,5.5
2019-04-04T15:12:57.882Z,5.4
2019-04-04T15:14:07.775Z,5.7
2019-04-04T15:15:17.600Z,5.2
2019-04-04T15:16:27.804Z,5.1
2019-04-04T15:17:37.741Z,5.1
2019-04-04T15:18:47.220Z,5.5
2019-04-04T15:19:57.312Z,5.1
2019-04-04T15:21:06.891Z,4.9
2019-04-04T15:22:16.796Z,4.8
2019-04-04T15:23:27.407Z,3.9
2019-04-04T15:24:36.651Z,4.9
2019-04-04T15:25:46.610Z,4.8
2019-04-04T15:26:56.555Z,4.4
2019-04-04T15:29:16.259Z,4.9
2019-04-04T15:30:26.155Z,5.3
2019-04-04T15:31:36.205Z,5.5
2019-04-04T15:32:45.988Z,5.2
2019-04-04T15:33:55.974Z,4.7
2019-04-04T15:35:05.951Z,4.4
2019-04-04T15:36:15.757Z,4
2019-04-04T15:37:25.703Z,4.6
2019-04-04T15:38:35.567Z,5.2
2019-04-04T15:39:45.460Z,5.2
2019-04-04T15:40:55.349Z,4.6
2019-04-04T15:42:05.465Z,4.8
2019-04-04T15:43:15.134Z,4.3
2019-04-04T15:44:25.025Z,4.4
2019-04-04T15:45:34.926Z,4.4
2019-04-04T15:46:44.834Z,4.5
2019-04-04T15:47:54.701Z,4.5
2019-04-04T15:49:04.578Z,4.9
2019-04-04T15:50:14.481Z,5.2
2019-04-04T15:51:24.325Z,4.9
2019-04-04T15:52:34.195Z,4.5
2019-04-04T15:53:43.931Z,4
2019-04-04T15:54:53.839Z,4.4
2019-04-04T15:56:03.756Z,5
2019-04-04T15:57:13.701Z,5
2019-04-04T15:58:23.349Z,5.1